Estações Meteorológicas Convencionais MB

Salinópolis
Data Hora VISIB (KM) Cobertura(OITAVOS) DD Vento(º) Intensidade (NÓS) TEMP DO AR (º) Temp do Ponto de Orvalho(ºC) Pressão (hPa) TEMP MAX (ºC) TEMP MIN (ºC)
30/05/2020 06:00 10/20 6 24.80 10.00 1013.40
30/05/2020 00:00 4/10 4 26.00 24.70 1013.50 31.00
29/05/2020 18:00 10/20 4 31.00 25.70 1012.60
29/05/2020 12:00 20/50 2 29.20 25.00 1014.60 26.80
28/05/2020 06:00 10/20 1 24.60 10.00 1011.10
28/05/2020 00:00 4/10 1 28.00 25.30 1011.10 31.00
27/05/2020 18:00 20/50 1 31.00 25.70 1011.00
27/05/2020 12:00 2 28.80 25.30 1013.80 25.20
27/05/2020 06:00 10/20 3 25.20 10.00 1012.50
27/05/2020 00:00 4/10 2 28.00 24.00 1012.50 30.80
26/05/2020 18:00 20/50 2 30.60 24.70 1011.70
26/05/2020 12:00 20/50 4 29.60 26.40 1014.60 27.00
26/05/2020 06:00 10/20 5 27.00 24.30 1014.10
24/05/2020 06:00 4/10 7 25.40 23.60 1014.70
25/05/2020 00:00 4/10 6 26.40 24.70 1013.90 30.00
23/05/2020 18:00 20/50 4 29.20 26.40 1012.60
23/05/2020 12:00 20/50 6 28.80 25.00 1015.30 24.20
22/05/2020 18:00 20/50 6 28.40 25.30 1013.50
22/05/2020 12:00 20/50 6 28.60 25.00 1015.50 23.60
20/05/2020 06:00 4/10 7 25.60 23.30 1013.40
20/05/2020 00:00 4/10 7 27.40 25.70 1013.50 31.20
19/05/2020 18:00 20/50 6 30.00 25.70 1013.60
19/05/2020 12:00 20/50 5 30.20 26.10 1015.10 24.60
18/05/2020 06:00 10/20 7 25.40 24.60 1012.70
18/05/2020 00:00 4/10 7 26.50 24.70 1013.30 30.50
17/05/2020 18:00 20/50 3 30.50 26.10 1011.60
17/05/2020 12:00 20/50 7 24.90 25.70 1014.10 25.50
16/05/2020 06:00 4/10 6 26.80 24.30 1013.40
16/05/2020 00:00 4/10 7 27.00 24.30 1013.80 29.80
15/05/2020 12:00 20/50 8 29.00 26.40 1013.90 27.00
15/05/2020 06:00 4/10 8 27.00 24.30 1013.80
14/05/2020 18:00 20/50 4 29.80 26.10 1013.40
14/05/2020 12:00 20/50 6 29.20 25.00 1014.70 26.00
14/05/2020 06:00 4/10 8 26.00 10.00 1012.20
11/05/2020 06:00 10/20 6 24.60 10.00 1011.30
11/05/2020 00:00 4/10 1 27.40 25.70 1011.40 29.80
10/05/2020 18:00 20/50 2 29.80 26.40 1010.90
10/05/2020 12:00 20/50 6 27.80 25.70 1013.80 25.40
10/05/2020 06:00 10/20 6 25.50 23.60 1013.10
10/05/2020 06:00 10/20 6 25.50 3.00
10/05/2020 00:00 4/10 6 26.60 10.00 1013.00 31.40
09/05/2020 18:00 20/50 2 31.40 25.70 1011.90
09/05/2020 12:00 20/50 3 29.00 26.40 1013.60 24.70
06/05/2020 06:00 10/20 5 25.60 23.60 1011.10
06/05/2020 06:00 10/20 5 25.60 23.60 1011.14
05/05/2020 18:00 20/50 3 28.80 25.30 1010.00
05/05/2020 12:00 10/20 6 26.60 10.00 1013.00 25.60
03/05/2020 06:00 4/10 4 25.40 10.00 1011.80
03/05/2020 00:00 4/10 4 27.00 24.70 1010.70 30.50
02/05/2020 18:00 20/50 3 30.00 26.10 1012.90
02/05/2020 12:00 20/50 4 28.00 25.30 1014.70 24.80
01/05/2020 06:00 4/10 8 24.40 10.00 1012.20
01/05/2020 00:00 4/10 8 26.00 24.70 1013.10 26.50
30/04/2020 18:00 10/20 8 26.00 10.00 1012.10
30/04/2020 12:00 20/50 8 26.50 10.00 1013.80 25.20
30/04/2020 06:00 4/10 8 25.20 10.00 1011.50
30/04/2020 00:00 4/10 6 26.00 24.70 1011.00 28.00
29/04/2020 18:00 20/50 7 27.00 25.70 1009.40
29/04/2020 12:00 20/50 7 26.20 10.00 1013.50 24.20
29/04/2020 06:00 4/10 5 24.20 10.00 1012.10
27/04/2020 06:00 10/20 5 25.40 10.00 1012.70
27/04/2020 00:00 4/10 4 26.80 24.70 1012.50 28.40
26/04/2020 18:00 20/50 5 27.80 24.30 1011.90
26/04/2020 12:00 20/50 4 26.00 10.00 1013.80 24.60
26/04/2020 06:00 10/20 4 24.60 10.00 1011.70
26/04/2020 00:00 4/10 1 27.60 25.70 1010.70 31.80
25/04/2020 18:00 20/50 2 31.80 25.70 1010.00
23/04/2020 06:00 10/20 4 24.60 22.60 1012.60
23/04/2020 00:00 4/10 3 27.00 24.30 1012.70 28.40
22/04/2020 18:00 20/50 3 28.40 24.00 1011.70
22/04/2020 12:00 20/50 4 26.00 24.70 1014.00 24.00
21/04/2020 06:00 10/20 6 24.00 22.60 1014.10
21/04/2020 00:00 4/10 6 25.00 23.60 1014.10 28.80
20/04/2020 18:00 20/50 5 28.20 25.30 1012.70
20/04/2020 12:00 20/50 6 25.40 23.60 1015.40 24.20
19/04/2020 00:00 4/10 1 27.00 25.70 1011.50 30.40
18/04/2020 18:00 20/50 2 30.40 26.10 1010.60
18/04/2020 12:00 20/50 5 26.40 24.70 1013.80 24.40
18/04/2020 06:00 10/20 6 24.40 10.00 1010.90
18/04/2020 00:00 4/10 5 25.80 10.00 1011.40 28.00
17/04/2020 18:00 20/50 4 28.00 25.30 1010.00
17/04/2020 12:00 10/20 7 24.20 10.00 1014.10 24.20
15/04/2020 06:00 10/20 6 23.80 10.00 1010.00
15/04/2020 00:00 4/10 5 24.60 10.00 1011.30 27.40
14/04/2020 18:00 10/20 7 25.40 23.60 1010.40
14/04/2020 12:00 10/20 7 23.60 10.00 1013.10 26.60
14/04/2020 06:00 10/20 4 27.40 10.00 1012.30
14/04/2020 00:00 4/10 5 26.40 24.70 1013.60 28.20
13/04/2020 18:00 20/50 6 28.60 25.30 1011.80
13/04/2020 12:00 20/50 8 27.40 24.30 1015.10 24.60
13/04/2020 12:00 4/10 7 26.40 24.70 1014.10
11/04/2020 12:00 4/10 8 26.20 23.30 1013.00
11/04/2020 00:00 4/10 8 26.80 24.30 1012.60 28.00
10/04/2020 18:00 20/50 8 28.00 25.30 1013.10
10/04/2020 12:00 20/50 8 26.80 10.00 1015.10 24.80
08/04/2020 06:00 4/10 8 25.60 10.00 1013.80
08/04/2020 00:00 4/10 7 27.40 24.30 1012.60 30.40
07/04/2020 18:00 20/50 5 28.60 25.00 1012.50
07/04/2020 12:00 20/50 5 28.60 25.00 1013.00 24.20
07/04/2020 06:00 4/10 7 26.60 22.90 1011.50